createdAt,value
2019-01-10T00:02:03.801Z,7.83
2019-01-10T00:04:32.693Z,12.40
2019-01-10T00:07:01.647Z,6.20
2019-01-10T00:09:30.666Z,9.97
2019-01-10T00:11:59.540Z,7.97
2019-01-10T00:14:28.406Z,5.93
2019-01-10T00:16:57.322Z,7.60
2019-01-10T00:19:26.157Z,9.10
2019-01-10T00:21:55.639Z,5.20
2019-01-10T00:24:24.647Z,6.30
2019-01-10T00:26:53.499Z,9.90
2019-01-10T00:29:22.970Z,13.00
2019-01-10T00:31:51.961Z,7.00
2019-01-10T00:34:21.271Z,10.90
2019-01-10T00:36:50.202Z,11.87
2019-01-10T00:39:19.121Z,12.70
2019-01-10T00:41:48.110Z,13.80
2019-01-10T00:44:17.048Z,11.03
2019-01-10T00:46:45.966Z,12.00
2019-01-10T00:49:14.950Z,11.77
2019-01-10T00:51:43.957Z,9.30
2019-01-10T00:54:12.867Z,5.50
2019-01-10T00:56:41.759Z,8.67
2019-01-10T00:59:10.835Z,6.90
2019-01-10T01:01:39.813Z,5.33
2019-01-10T01:04:08.852Z,15.37
2019-01-10T01:06:39.080Z,11.63
2019-01-10T01:09:08.292Z,5.17
2019-01-10T01:11:37.227Z,7.90
2019-01-10T01:14:06.222Z,7.83
2019-01-10T01:16:35.107Z,9.90
2019-01-10T01:19:04.509Z,5.43
2019-01-10T01:21:33.467Z,8.57
2019-01-10T01:24:02.461Z,10.40
2019-01-10T01:26:31.306Z,6.93
2019-01-10T01:29:00.283Z,4.20
2019-01-10T01:31:29.181Z,7.47
2019-01-10T01:33:58.328Z,7.30
2019-01-10T01:36:27.354Z,10.80
2019-01-10T01:38:56.214Z,5.73
2019-01-10T01:41:25.774Z,6.67
2019-01-10T01:43:55.285Z,8.80
2019-01-10T01:46:24.263Z,3.60
2019-01-10T01:48:53.060Z,4.13
2019-01-10T01:51:23.172Z,3.77
2019-01-10T01:53:53.934Z,8.70
2019-01-10T01:56:22.896Z,16.37
2019-01-10T01:58:53.360Z,11.07
2019-01-10T02:01:23.304Z,4.93
2019-01-10T02:03:52.186Z,5.33
2019-01-10T02:06:21.982Z,5.07
2019-01-10T02:08:50.944Z,9.03
2019-01-10T02:11:19.840Z,19.70
2019-01-10T02:13:48.716Z,8.10
2019-01-10T02:16:17.581Z,7.27
2019-01-10T02:18:46.469Z,4.67
2019-01-10T02:21:17.762Z,3.60
2019-01-10T02:23:46.769Z,4.10
2019-01-10T02:26:15.762Z,4.40
2019-01-10T02:28:44.708Z,6.27
2019-01-10T02:31:13.724Z,4.60
2019-01-10T02:33:42.653Z,8.87
2019-01-10T02:36:11.464Z,6.97
2019-01-10T02:38:40.571Z,8.67
2019-01-10T02:41:09.458Z,4.23
2019-01-10T02:43:38.307Z,6.87
2019-01-10T02:46:07.347Z,6.57
2019-01-10T02:48:36.302Z,3.43
2019-01-10T02:51:05.285Z,5.03
2019-01-10T02:53:34.212Z,4.70
2019-01-10T02:56:03.322Z,7.77
2019-01-10T02:58:32.269Z,3.37
2019-01-10T03:01:01.261Z,5.90
2019-01-10T03:03:30.184Z,11.03
2019-01-10T03:05:59.255Z,8.33
2019-01-10T03:08:28.233Z,3.50
2019-01-10T03:10:57.840Z,12.73
2019-01-10T03:13:36.279Z,11.53
2019-01-10T03:15:57.349Z,5.27
2019-01-10T03:18:27.730Z,9.03
2019-01-10T03:20:56.571Z,4.87
2019-01-10T03:23:25.451Z,13.53
2019-01-10T03:25:54.400Z,16.73
2019-01-10T03:28:23.566Z,3.93
2019-01-10T03:30:52.447Z,8.30
2019-01-10T03:33:21.467Z,3.43
2019-01-10T03:35:50.685Z,11.17
2019-01-10T03:38:19.552Z,7.40
2019-01-10T03:40:48.480Z,14.47
2019-01-10T03:43:17.390Z,4.53
2019-01-10T03:45:46.449Z,10.60
2019-01-10T03:48:15.431Z,7.53
2019-01-10T03:50:44.412Z,12.80
2019-01-10T03:53:13.261Z,7.97
2019-01-10T03:55:42.197Z,3.77
2019-01-10T03:58:11.162Z,7.30
2019-01-10T04:00:39.997Z,8.10
2019-01-10T04:03:09.011Z,11.73
2019-01-10T04:05:37.965Z,16.33
2019-01-10T04:08:07.755Z,12.20
2019-01-10T04:10:36.642Z,7.43
2019-01-10T04:13:05.477Z,4.00
2019-01-10T04:15:34.479Z,19.03
2019-01-10T04:18:03.757Z,12.60
2019-01-10T04:20:32.747Z,5.43
2019-01-10T04:23:01.904Z,11.17
2019-01-10T04:25:31.444Z,4.20
2019-01-10T04:28:01.194Z,10.13
2019-01-10T04:30:32.839Z,6.10
2019-01-10T04:33:01.826Z,7.03
2019-01-10T04:35:30.953Z,6.43
2019-01-10T04:38:01.021Z,9.23
2019-01-10T04:40:30.127Z,5.23
2019-01-10T04:42:59.009Z,4.73
2019-01-10T04:45:28.038Z,9.03
2019-01-10T04:47:56.955Z,9.40
2019-01-10T04:50:26.626Z,9.60
2019-01-10T04:52:55.508Z,10.47
2019-01-10T04:55:24.269Z,7.10
2019-01-10T04:57:53.248Z,6.00
2019-01-10T05:00:23.863Z,7.40
2019-01-10T05:02:52.744Z,17.17
2019-01-10T05:05:22.835Z,11.13
2019-01-10T05:07:52.797Z,15.03
2019-01-10T05:10:21.847Z,7.87
2019-01-10T05:12:50.732Z,9.40
2019-01-10T05:15:19.806Z,21.33
2019-01-10T05:17:50.682Z,9.57
2019-01-10T05:20:20.018Z,6.67
2019-01-10T05:22:49.018Z,5.63
2019-01-10T05:25:19.462Z,10.70
2019-01-10T05:27:48.483Z,9.33
2019-01-10T05:30:20.025Z,6.77
2019-01-10T05:32:49.534Z,7.30
2019-01-10T05:35:18.426Z,6.17
2019-01-10T05:37:48.767Z,8.87
2019-01-10T05:40:17.708Z,9.30
2019-01-10T05:42:47.757Z,8.47
2019-01-10T05:45:18.251Z,13.23
2019-01-10T05:47:47.289Z,7.70
2019-01-10T05:50:17.936Z,6.63
2019-01-10T05:52:47.202Z,12.10
2019-01-10T05:55:18.133Z,14.30
2019-01-10T05:57:47.029Z,7.53
2019-01-10T06:00:18.853Z,8.40
2019-01-10T06:02:47.732Z,7.17
2019-01-10T06:05:16.630Z,16.93
2019-01-10T06:07:45.700Z,10.93
2019-01-10T06:10:17.455Z,7.43
2019-01-10T06:12:46.434Z,13.83
2019-01-10T06:15:16.516Z,11.17
2019-01-10T06:17:45.507Z,8.30
2019-01-10T06:20:17.270Z,14.03
2019-01-10T06:22:46.158Z,11.33
2019-01-10T06:25:15.361Z,8.20
2019-01-10T06:27:44.547Z,8.53
2019-01-10T06:30:16.509Z,6.10
2019-01-10T06:32:45.363Z,16.90
2019-01-10T06:35:14.637Z,15.73
2019-01-10T06:37:44.094Z,9.77
2019-01-10T06:40:16.115Z,12.20
2019-01-10T06:42:45.046Z,13.47
2019-01-10T06:45:15.842Z,9.73
2019-01-10T06:47:44.899Z,13.47
2019-01-10T06:50:15.946Z,15.10
2019-01-10T06:52:45.064Z,6.93
2019-01-10T06:55:14.095Z,12.80
2019-01-10T06:57:44.119Z,14.73
2019-01-10T07:00:16.182Z,13.60
2019-01-10T07:02:45.520Z,15.37
2019-01-10T07:05:14.544Z,29.77
2019-01-10T07:07:44.913Z,10.63
2019-01-10T07:10:16.726Z,8.77
2019-01-10T07:12:46.540Z,16.13
2019-01-10T07:15:16.564Z,7.80
2019-01-10T07:17:45.385Z,9.53
2019-01-10T07:20:14.554Z,18.17
2019-01-10T07:22:46.035Z,10.27
2019-01-10T07:25:14.960Z,10.53
2019-01-10T07:27:46.338Z,16.37
2019-01-10T07:30:18.096Z,11.10
2019-01-10T07:32:46.990Z,10.43
2019-01-10T07:35:15.941Z,9.27
2019-01-10T07:37:48.860Z,8.20
2019-01-10T07:40:17.901Z,13.77
2019-01-10T07:42:46.896Z,17.00
2019-01-10T07:45:18.666Z,16.70
2019-01-10T07:47:49.410Z,18.17
2019-01-10T07:50:22.992Z,9.53
2019-01-10T07:52:52.017Z,11.77
2019-01-10T07:55:21.066Z,7.00
2019-01-10T07:57:49.962Z,18.80
2019-01-10T08:00:20.086Z,9.57
2019-01-10T08:02:49.160Z,10.73
2019-01-10T08:05:19.745Z,11.80
2019-01-10T08:07:49.729Z,6.80
2019-01-10T08:10:18.761Z,11.47
2019-01-10T08:12:49.086Z,7.97
2019-01-10T08:15:21.650Z,12.07
2019-01-10T08:17:51.303Z,22.23
2019-01-10T08:20:21.120Z,12.10
2019-01-10T08:22:50.045Z,8.93
2019-01-10T08:25:18.897Z,15.43
2019-01-10T08:27:48.167Z,10.27
2019-01-10T08:30:19.358Z,15.07
2019-01-10T08:32:48.287Z,8.33
2019-01-10T08:35:20.089Z,10.17
2019-01-10T08:37:49.135Z,8.73
2019-01-10T08:40:18.089Z,17.43
2019-01-10T08:42:47.030Z,12.20
2019-01-10T08:45:21.825Z,15.03
2019-01-10T08:47:48.157Z,12.23
2019-01-10T08:50:19.856Z,17.00
2019-01-10T08:52:48.855Z,10.20
2019-01-10T08:55:17.877Z,10.70
2019-01-10T08:57:46.766Z,16.20
2019-01-10T09:00:18.106Z,12.60
2019-01-10T09:02:49.295Z,10.33
2019-01-10T09:05:18.252Z,19.33
2019-01-10T09:07:47.225Z,10.60
2019-01-10T09:10:18.945Z,11.00
2019-01-10T09:12:48.076Z,5.90
2019-01-10T09:15:23.363Z,12.53
2019-01-10T09:17:47.639Z,17.43
2019-01-10T09:20:16.594Z,28.27
2019-01-10T09:22:48.202Z,14.43
2019-01-10T09:25:17.837Z,13.33
2019-01-10T09:27:46.910Z,21.60
2019-01-10T09:30:18.269Z,8.57
2019-01-10T09:32:48.004Z,9.33
2019-01-10T09:35:17.468Z,7.10
2019-01-10T09:37:47.107Z,10.77
2019-01-10T09:40:18.406Z,14.83
2019-01-10T09:42:47.616Z,11.70
2019-01-10T09:45:19.210Z,7.07
2019-01-10T09:47:48.102Z,19.03
2019-01-10T09:50:19.495Z,11.90
2019-01-10T09:52:48.685Z,10.47
2019-01-10T09:55:17.750Z,7.80
2019-01-10T09:57:46.740Z,11.20
2019-01-10T10:00:18.808Z,13.13
2019-01-10T10:02:47.685Z,7.87
2019-01-10T10:05:16.671Z,8.40
2019-01-10T10:07:45.694Z,9.50
2019-01-10T10:10:17.065Z,7.97
2019-01-10T10:12:46.242Z,5.87
2019-01-10T10:15:17.126Z,12.17
2019-01-10T10:17:46.208Z,9.30
2019-01-10T10:20:18.280Z,17.20
2019-01-10T10:22:47.387Z,19.37
2019-01-10T10:25:16.206Z,7.73
2019-01-10T10:27:45.418Z,13.37
2019-01-10T10:30:17.034Z,7.23
2019-01-10T10:32:45.952Z,9.63
2019-01-10T10:35:15.511Z,6.40
2019-01-10T10:37:44.624Z,16.70
2019-01-10T10:40:16.256Z,8.47
2019-01-10T10:42:45.144Z,9.23
2019-01-10T10:45:16.644Z,14.23
2019-01-10T10:47:45.538Z,14.10
2019-01-10T10:50:17.161Z,8.93
2019-01-10T10:52:46.120Z,11.33
2019-01-10T10:55:16.279Z,6.53
2019-01-10T10:57:45.409Z,12.20
2019-01-10T11:00:17.774Z,7.43
2019-01-10T11:02:47.215Z,12.50
2019-01-10T11:05:16.226Z,11.57
2019-01-10T11:07:46.189Z,10.33
2019-01-10T11:10:17.892Z,18.63
2019-01-10T11:12:46.885Z,7.43
2019-01-10T11:15:17.709Z,13.13
2019-01-10T11:17:47.585Z,9.03
2019-01-10T11:20:19.312Z,9.27
2019-01-10T11:22:48.744Z,11.63
2019-01-10T11:25:20.260Z,11.93
2019-01-10T11:27:49.396Z,7.57
2019-01-10T11:30:19.988Z,10.37
2019-01-10T11:32:49.856Z,12.20
2019-01-10T11:35:19.013Z,24.43
2019-01-10T11:37:47.943Z,9.67
2019-01-10T11:40:22.689Z,6.70
2019-01-10T11:42:51.756Z,15.07
2019-01-10T11:45:22.570Z,6.23
2019-01-10T11:47:51.597Z,22.67
2019-01-10T11:50:20.659Z,17.10
2019-01-10T11:52:49.854Z,9.33
2019-01-10T11:55:18.822Z,19.37
2019-01-10T11:57:47.802Z,13.13
2019-01-10T12:00:19.807Z,15.30
2019-01-10T12:02:48.690Z,19.30
2019-01-10T12:05:17.674Z,7.90
2019-01-10T12:07:46.630Z,7.57
2019-01-10T12:10:17.096Z,10.83
2019-01-10T12:12:45.917Z,11.27
2019-01-10T12:15:15.695Z,10.40
2019-01-10T12:17:45.984Z,12.03
2019-01-10T12:20:17.337Z,21.47
2019-01-10T12:22:47.203Z,9.30
2019-01-10T12:25:22.137Z,11.40
2019-01-10T12:27:52.323Z,8.40
2019-01-10T12:30:23.727Z,7.83
2019-01-10T12:32:55.391Z,9.13
2019-01-10T12:35:24.804Z,11.30
2019-01-10T12:37:54.887Z,15.73
2019-01-10T12:40:26.925Z,14.17
2019-01-10T12:42:55.754Z,10.90
2019-01-10T12:45:24.662Z,8.47
2019-01-10T12:47:53.640Z,7.60
2019-01-10T12:50:24.858Z,6.90
2019-01-10T12:52:53.740Z,6.67
2019-01-10T12:55:22.794Z,13.00
2019-01-10T12:57:52.576Z,14.77
2019-01-10T13:00:24.018Z,9.97
2019-01-10T13:02:54.934Z,7.43
2019-01-10T13:05:23.889Z,8.80
2019-01-10T13:07:53.646Z,21.13
2019-01-10T13:10:28.964Z,10.10
2019-01-10T13:12:56.220Z,11.93
2019-01-10T13:15:27.019Z,19.47
2019-01-10T13:17:56.116Z,13.13
2019-01-10T13:20:26.069Z,13.00
2019-01-10T13:22:54.893Z,12.03
2019-01-10T13:25:23.789Z,8.40
2019-01-10T13:27:52.806Z,18.60
2019-01-10T13:30:23.607Z,7.33
2019-01-10T13:32:54.985Z,17.00
2019-01-10T13:35:23.774Z,12.57
2019-01-10T13:37:52.910Z,17.93
2019-01-10T13:40:22.121Z,15.00
2019-01-10T13:42:51.022Z,14.30
2019-01-10T13:45:20.183Z,7.97
2019-01-10T13:47:49.492Z,7.63
2019-01-10T13:50:22.412Z,16.13
2019-01-10T13:52:51.421Z,9.97
2019-01-10T13:55:21.273Z,7.63
2019-01-10T13:57:50.285Z,12.43
2019-01-10T14:00:22.394Z,13.30
2019-01-10T14:02:51.455Z,19.73
2019-01-10T14:05:20.394Z,9.07
2019-01-10T14:07:49.548Z,9.77
2019-01-10T14:10:19.777Z,12.70
2019-01-10T14:12:48.860Z,20.37
2019-01-10T14:15:20.360Z,32.70
2019-01-10T14:17:51.936Z,26.43
2019-01-10T14:20:21.429Z,15.07
2019-01-10T14:22:51.179Z,20.13
2019-01-10T14:25:20.447Z,16.23
2019-01-10T14:27:49.480Z,8.77
2019-01-10T14:30:21.468Z,11.00
2019-01-10T14:32:51.222Z,8.70
2019-01-10T14:35:20.661Z,14.07
2019-01-10T14:37:49.804Z,12.50
2019-01-10T14:40:21.310Z,7.10
2019-01-10T14:42:54.196Z,8.50
2019-01-10T14:45:25.030Z,8.80
2019-01-10T14:48:01.667Z,10.63
2019-01-10T14:50:28.003Z,11.23
2019-01-10T14:52:56.829Z,10.27
2019-01-10T14:55:25.788Z,12.50
2019-01-10T14:58:03.468Z,22.50
2019-01-10T15:00:32.121Z,15.00
2019-01-10T15:03:02.981Z,15.50
2019-01-10T15:05:34.469Z,20.77
2019-01-10T15:08:07.077Z,16.20
2019-01-10T15:10:36.785Z,12.67
2019-01-10T15:13:07.402Z,16.10
2019-01-10T15:15:39.181Z,17.23
2019-01-10T15:18:09.665Z,18.33
2019-01-10T15:20:38.630Z,18.77
2019-01-10T15:23:07.519Z,15.33
2019-01-10T15:25:36.383Z,19.63
2019-01-10T15:28:05.503Z,14.17
2019-01-10T15:30:34.898Z,18.13
2019-01-10T15:33:04.017Z,18.67
2019-01-10T15:35:33.033Z,19.10
2019-01-10T15:38:01.927Z,9.63
2019-01-10T15:40:32.893Z,17.23
2019-01-10T15:43:01.981Z,15.00
2019-01-10T15:45:30.891Z,10.27
2019-01-10T15:48:00.483Z,16.23
2019-01-10T15:50:29.551Z,36.33
2019-01-10T15:52:59.544Z,22.43
2019-01-10T15:55:28.773Z,11.27
2019-01-10T15:57:57.680Z,13.30
2019-01-10T16:00:26.687Z,10.17
2019-01-10T16:02:56.079Z,20.57
2019-01-10T16:05:25.439Z,10.00
2019-01-10T16:07:54.825Z,15.93
2019-01-10T16:10:26.049Z,9.67
2019-01-10T16:12:55.031Z,18.57
2019-01-10T16:15:24.947Z,12.63
2019-01-10T16:17:53.947Z,17.50
2019-01-10T16:20:23.350Z,29.03
2019-01-10T16:22:52.612Z,13.33
2019-01-10T16:25:21.810Z,23.50
2019-01-10T16:27:51.215Z,31.50
2019-01-10T16:30:22.754Z,36.47
2019-01-10T16:33:04.585Z,17.80
2019-01-10T16:35:31.074Z,16.47
2019-01-10T16:38:01.088Z,22.80
2019-01-10T16:40:30.971Z,18.67
2019-01-10T16:43:04.296Z,18.77
2019-01-10T16:45:36.247Z,21.27
2019-01-10T16:48:08.713Z,24.40
2019-01-10T16:50:39.010Z,23.23
2019-01-10T16:53:13.762Z,19.07
2019-01-10T16:55:42.773Z,18.80
2019-01-10T16:58:15.870Z,18.53
2019-01-10T17:00:46.163Z,17.67
2019-01-10T17:03:16.503Z,19.93
2019-01-10T17:05:47.007Z,13.07
2019-01-10T17:08:16.002Z,18.10
2019-01-10T17:10:44.947Z,21.07
2019-01-10T17:13:13.864Z,13.57
2019-01-10T17:15:44.359Z,14.73
2019-01-10T17:18:15.371Z,17.17
2019-01-10T17:20:44.513Z,17.50
2019-01-10T17:23:13.396Z,18.80
2019-01-10T17:25:42.297Z,24.00
2019-01-10T17:28:11.183Z,14.57
2019-01-10T17:30:40.251Z,17.57
2019-01-10T17:33:18.135Z,18.70
2019-01-10T17:35:47.231Z,21.00
2019-01-10T17:38:17.677Z,26.33
2019-01-10T17:40:48.851Z,24.00
2019-01-10T17:43:41.129Z,20.37
2019-01-10T17:45:51.347Z,18.60
2019-01-10T17:48:22.872Z,16.47
2019-01-10T17:51:07.702Z,30.60
2019-01-10T17:53:38.048Z,23.40
2019-01-10T17:56:08.449Z,24.67
2019-01-10T17:58:37.549Z,32.97
2019-01-10T18:01:06.664Z,16.83
2019-01-10T18:03:40.373Z,30.07
2019-01-10T18:06:09.083Z,21.90
2019-01-10T18:08:38.240Z,25.40
2019-01-10T18:11:07.255Z,21.20
2019-01-10T18:13:37.110Z,15.40
2019-01-10T18:16:07.431Z,22.13
2019-01-10T18:18:37.939Z,26.40
2019-01-10T18:21:14.811Z,23.13
2019-01-10T18:23:39.131Z,22.97
2019-01-10T18:26:09.298Z,16.87
2019-01-10T18:28:39.999Z,30.13
2019-01-10T18:31:09.561Z,14.20
2019-01-10T18:33:40.890Z,15.97
2019-01-10T18:36:12.347Z,16.27
2019-01-10T18:38:43.409Z,23.60
2019-01-10T18:41:12.702Z,25.47
2019-01-10T18:43:41.681Z,20.80
2019-01-10T18:46:10.726Z,21.17
2019-01-10T18:48:39.962Z,22.17
2019-01-10T18:51:08.921Z,19.03
2019-01-10T18:53:39.020Z,22.80
2019-01-10T18:56:07.991Z,22.33
2019-01-10T18:58:36.948Z,33.07
2019-01-10T19:01:06.041Z,18.30
2019-01-10T19:03:35.121Z,47.37
2019-01-10T19:06:06.074Z,19.23
2019-01-10T19:08:35.162Z,24.00
2019-01-10T19:11:04.477Z,23.70
2019-01-10T19:13:33.408Z,25.93
2019-01-10T19:16:02.478Z,20.37
2019-01-10T19:18:32.115Z,22.13
2019-01-10T19:21:01.109Z,19.23
2019-01-10T19:23:30.114Z,15.87
2019-01-10T19:25:59.081Z,22.10
2019-01-10T19:28:27.993Z,19.07
2019-01-10T19:30:56.835Z,23.77
2019-01-10T19:33:25.731Z,22.87
2019-01-10T19:35:54.858Z,16.20
2019-01-10T19:38:24.025Z,24.30
2019-01-10T19:40:53.770Z,30.83
2019-01-10T19:43:22.746Z,24.03
2019-01-10T19:45:51.683Z,18.13
2019-01-10T19:48:20.670Z,23.17
2019-01-10T19:50:49.901Z,30.90
2019-01-10T19:53:18.814Z,13.40
2019-01-10T19:55:49.174Z,20.27
2019-01-10T19:58:20.450Z,17.93
2019-01-10T20:00:59.331Z,23.10
2019-01-10T20:03:28.554Z,26.73
2019-01-10T20:05:58.909Z,21.23
2019-01-10T20:08:30.610Z,16.93
2019-01-10T20:11:09.790Z,22.40
2019-01-10T20:13:38.853Z,19.97
2019-01-10T20:16:08.246Z,29.90
2019-01-10T20:18:38.418Z,26.17
2019-01-10T20:21:09.287Z,16.47
2019-01-10T20:23:39.107Z,18.93
2019-01-10T20:26:08.204Z,19.93
2019-01-10T20:28:37.204Z,26.40
2019-01-10T20:31:07.627Z,12.20
2019-01-10T20:33:39.997Z,25.80
2019-01-10T20:36:12.705Z,22.87
2019-01-10T20:38:44.603Z,24.13
2019-01-10T20:41:14.802Z,21.47
2019-01-10T20:43:45.215Z,19.37
2019-01-10T20:46:15.121Z,20.93
2019-01-10T20:48:45.548Z,25.00
2019-01-10T20:51:14.824Z,20.73
2019-01-10T20:53:43.666Z,18.00
2019-01-10T20:56:12.905Z,25.97
2019-01-10T20:58:41.970Z,16.10
2019-01-10T21:01:11.316Z,25.30
2019-01-10T21:03:40.193Z,24.73
2019-01-10T21:06:10.745Z,26.37
2019-01-10T21:08:48.420Z,19.63
2019-01-10T21:11:17.491Z,22.23
2019-01-10T21:13:46.349Z,16.73
2019-01-10T21:16:16.791Z,18.90
2019-01-10T21:18:45.771Z,18.43
2019-01-10T21:21:18.841Z,24.43
2019-01-10T21:23:47.801Z,16.27
2019-01-10T21:26:18.559Z,30.07
2019-01-10T21:28:48.244Z,17.57
2019-01-10T21:31:21.129Z,28.37
2019-01-10T21:33:50.802Z,26.27
2019-01-10T21:36:20.322Z,29.63
2019-01-10T21:38:49.255Z,24.27
2019-01-10T21:41:22.664Z,23.17
2019-01-10T21:43:52.568Z,16.83
2019-01-10T21:46:23.006Z,18.43
2019-01-10T21:48:52.028Z,19.50
2019-01-10T21:51:21.426Z,23.27
2019-01-10T21:53:50.414Z,25.77
2019-01-10T21:56:19.311Z,25.93
2019-01-10T21:58:48.348Z,19.00
2019-01-10T22:01:17.181Z,19.80
2019-01-10T22:03:46.161Z,23.73
2019-01-10T22:06:15.052Z,16.23
2019-01-10T22:08:44.024Z,22.40
2019-01-10T22:11:13.007Z,22.27
2019-01-10T22:13:41.958Z,16.37
2019-01-10T22:16:10.828Z,20.60
2019-01-10T22:18:41.539Z,18.63
2019-01-10T22:21:10.641Z,20.13
2019-01-10T22:23:40.905Z,15.57
2019-01-10T22:26:09.856Z,15.23
2019-01-10T22:28:38.822Z,20.83
2019-01-10T22:31:07.966Z,24.00
2019-01-10T22:33:36.869Z,18.23
2019-01-10T22:36:06.193Z,33.73
2019-01-10T22:38:35.155Z,26.67
2019-01-10T22:41:04.427Z,16.40
2019-01-10T22:43:33.974Z,21.93
2019-01-10T22:46:02.867Z,18.40
2019-01-10T22:48:31.954Z,30.43
2019-01-10T22:51:00.858Z,23.87
2019-01-10T22:53:29.804Z,20.40
2019-01-10T22:55:58.677Z,23.90
2019-01-10T22:58:27.579Z,26.77
2019-01-10T23:00:58.701Z,21.40
2019-01-10T23:03:30.272Z,22.63
2019-01-10T23:05:59.157Z,25.13
2019-01-10T23:08:28.267Z,24.70
2019-01-10T23:10:57.406Z,23.90
2019-01-10T23:13:27.572Z,24.10
2019-01-10T23:15:56.603Z,41.33
2019-01-10T23:18:25.503Z,25.40
2019-01-10T23:20:56.672Z,28.50
2019-01-10T23:23:25.864Z,26.17
2019-01-10T23:25:55.263Z,17.43
2019-01-10T23:28:24.290Z,24.80
2019-01-10T23:30:56.016Z,25.27
2019-01-10T23:33:25.945Z,24.43
2019-01-10T23:35:57.240Z,28.20
2019-01-10T23:38:26.574Z,32.17
2019-01-10T23:40:55.899Z,33.63
2019-01-10T23:43:24.855Z,29.30
2019-01-10T23:45:53.808Z,27.90
2019-01-10T23:48:23.288Z,27.90
2019-01-10T23:50:52.318Z,30.93
2019-01-10T23:53:22.779Z,33.73
2019-01-10T23:55:51.768Z,35.73
2019-01-10T23:58:21.129Z,37.03
